Terminal Aerodrome Forecast
Issued by NWS Charleston, WV

Home | Current Version | Previous Version | Text Only | Print | Product List | Glossary On
Versions: 1 2 3 4 5 6 7 8 9 10 11 12 13 14 15 16 17 18 19 20 21 22 23 24 25 26
000
FTUS41 KRLX 201500 AAA
TAFEKN
TAF AMD
KEKN 201500Z 2015/2112 17007KT P6SM SKC
     FM210600 VRB03KT 6SM BR FEW050
     FM210800 00000KT 1SM BR FEW001
     FM210900 00000KT 1/4SM FG VV001=

USA.gov is the U.S. government's official web portal to all federal, state and local government web resources and services.